Time,TemperatureF,DewpointF,PressureIn,WindDirection,WindDirectionDegrees,WindSpeedMPH,WindSpeedGustMPH,Humidity,HourlyPrecipIn,Conditions,Clouds,dailyrainin,SolarRadiationWatts/m^2,SoftwareType,DateUTC
2013-01-14 00:08:00,13.9,9.1,30.53,NW,307,0.0,0.0,81,0.00,,,0.00,0,Wunderground v.1.15,2013-01-14 06:08:00,
2013-01-14 00:19:00,12.8,8.1,30.54,NW,307,0.0,0.0,81,0.00,,,0.00,0,Wunderground v.1.15,2013-01-14 06:19:00,
2013-01-14 00:29:00,11.8,7.9,30.54,South,171,1.0,1.0,84,0.00,,,0.00,0,Wunderground v.1.15,2013-01-14 06:29:00,
2013-01-14 00:39:00,11.7,8.1,30.54,South,171,1.0,1.0,85,0.00,,,0.00,0,Wunderground v.1.15,2013-01-14 06:39:00,
2013-01-14 00:44:00,11.5,7.6,30.55,South,171,1.0,1.0,84,0.00,,,0.00,0,Wunderground v.1.15,2013-01-14 06:44:00,
2013-01-14 00:54:00,10.7,7.1,30.55,South,171,0.0,1.0,85,0.00,,,0.00,0,Wunderground v.1.15,2013-01-14 06:54:00,
2013-01-14 01:04:00,10.4,7.0,30.57,South,171,0.0,0.0,86,0.00,,,0.00,0,Wunderground v.1.15,2013-01-14 07:04:00,
2013-01-14 01:14:00,11.1,7.7,30.57,South,171,0.0,0.0,86,0.00,,,0.00,0,Wunderground v.1.15,2013-01-14 07:14:00,
2013-01-14 01:24:00,10.8,7.2,30.58,South,171,1.0,1.0,85,0.00,,,0.00,0,Wunderground v.1.15,2013-01-14 07:24:00,
2013-01-14 01:34:00,10.0,6.6,30.58,South,171,0.0,0.0,86,0.00,,,0.00,0,Wunderground v.1.15,2013-01-14 07:34:00,
2013-01-14 01:44:00,10.1,7.0,30.58,South,171,0.0,1.0,87,0.00,,,0.00,0,Wunderground v.1.15,2013-01-14 07:44:00,
2013-01-14 01:49:00,10.4,7.3,30.59,South,171,0.0,0.0,87,0.00,,,0.00,0,Wunderground v.1.15,2013-01-14 07:49:00,
2013-01-14 01:54:00,10.7,7.6,30.59,South,171,0.0,0.0,87,0.00,,,0.00,0,Wunderground v.1.15,2013-01-14 07:54:00,
2013-01-14 02:04:00,11.2,7.8,30.59,South,171,0.0,0.0,86,0.00,,,0.00,0,Wunderground v.1.15,2013-01-14 08:04:00,
2013-01-14 02:14:00,10.9,7.5,30.59,South,171,0.0,0.0,86,0.00,,,0.00,0,Wunderground v.1.15,2013-01-14 08:14:00,
2013-01-14 02:24:00,9.6,6.3,30.60,South,171,0.0,0.0,86,0.00,,,0.00,0,Wunderground v.1.15,2013-01-14 08:24:00,
2013-01-14 02:34:00,9.2,6.1,30.60,South,171,0.0,0.0,87,0.00,,,0.00,0,Wunderground v.1.15,2013-01-14 08:34:00,
2013-01-14 02:44:00,9.4,6.6,30.61,South,171,0.0,1.0,88,0.00,,,0.00,0,Wunderground v.1.15,2013-01-14 08:44:00,
2013-01-14 02:49:00,9.6,6.8,30.60,South,171,0.0,0.0,88,0.00,,,0.00,0,Wunderground v.1.15,2013-01-14 08:49:00,
2013-01-14 02:59:00,9.6,6.5,30.60,South,171,0.0,0.0,87,0.00,,,0.00,0,Wunderground v.1.15,2013-01-14 08:59:00,
2013-01-14 03:09:00,9.1,6.0,30.61,South,171,1.0,1.0,87,0.00,,,0.00,0,Wunderground v.1.15,2013-01-14 09:09:00,
2013-01-14 03:14:00,9.1,6.0,30.60,South,171,1.0,1.0,87,0.00,,,0.00,0,Wunderground v.1.15,2013-01-14 09:14:00,
2013-01-14 03:24:00,9.3,6.2,30.61,South,171,0.0,0.0,87,0.00,,,0.00,0,Wunderground v.1.15,2013-01-14 09:24:00,
2013-01-14 03:34:00,8.9,5.8,30.60,South,171,0.0,0.0,87,0.00,,,0.00,0,Wunderground v.1.15,2013-01-14 09:34:00,
2013-01-14 03:44:00,8.2,5.1,30.61,South,171,0.0,0.0,87,0.00,,,0.00,0,Wunderground v.1.15,2013-01-14 09:44:00,
2013-01-14 03:54:00,8.1,5.0,30.60,South,171,0.0,0.0,87,0.00,,,0.00,0,Wunderground v.1.15,2013-01-14 09:54:00,
2013-01-14 04:04:00,8.1,5.0,30.60,South,171,0.0,0.0,87,0.00,,,0.00,0,Wunderground v.1.15,2013-01-14 10:04:00,
2013-01-14 04:09:00,8.0,4.9,30.60,South,171,0.0,0.0,87,0.00,,,0.00,0,Wunderground v.1.15,2013-01-14 10:09:00,
2013-01-14 04:19:00,7.9,4.8,30.60,South,171,0.0,0.0,87,0.00,,,0.00,0,Wunderground v.1.15,2013-01-14 10:19:00,
2013-01-14 04:29:00,8.1,5.0,30.59,South,171,0.0,0.0,87,0.00,,,0.00,0,Wunderground v.1.15,2013-01-14 10:29:00,
2013-01-14 04:39:00,8.5,5.7,30.59,South,171,0.0,0.0,88,0.00,,,0.00,0,Wunderground v.1.15,2013-01-14 10:39:00,
2013-01-14 04:48:00,8.1,5.0,30.59,South,171,0.0,0.0,87,0.00,,,0.00,0,Wunderground v.1.15,2013-01-14 10:48:00,
2013-01-14 04:54:00,8.0,4.9,30.58,South,171,0.0,0.0,87,0.00,,,0.00,0,Wunderground v.1.15,2013-01-14 10:54:00,
2013-01-14 05:04:00,8.2,5.4,30.59,South,171,0.0,0.0,88,0.00,,,0.00,0,Wunderground v.1.15,2013-01-14 11:04:00,
2013-01-14 05:14:00,8.5,5.7,30.59,South,171,0.0,0.0,88,0.00,,,0.00,0,Wunderground v.1.15,2013-01-14 11:14:00,
2013-01-14 05:23:00,7.7,4.6,30.59,South,171,0.0,0.0,87,0.00,,,0.00,0,Wunderground v.1.15,2013-01-14 11:23:00,
2013-01-14 05:33:00,7.4,4.3,30.59,South,171,0.0,0.0,87,0.00,,,0.00,0,Wunderground v.1.15,2013-01-14 11:33:00,
2013-01-14 05:38:00,7.4,4.3,30.59,South,171,0.0,0.0,87,0.00,,,0.00,0,Wunderground v.1.15,2013-01-14 11:38:00,
2013-01-14 05:48:00,7.1,4.0,30.59,South,171,0.0,0.0,87,0.00,,,0.00,0,Wunderground v.1.15,2013-01-14 11:48:00,
2013-01-14 05:58:00,6.6,3.3,30.59,South,171,0.0,0.0,86,0.00,,,0.00,0,Wunderground v.1.15,2013-01-14 11:58:00,
2013-01-14 06:08:00,6.4,3.4,30.58,South,171,2.0,2.0,87,0.00,,,0.00,0,Wunderground v.1.15,2013-01-14 12:08:00,
2013-01-14 06:13:00,6.0,2.7,30.58,South,171,2.0,2.0,86,0.00,,,0.00,0,Wunderground v.1.15,2013-01-14 12:13:00,
2013-01-14 06:23:00,5.8,2.8,30.58,South,171,1.0,2.0,87,0.00,,,0.00,0,Wunderground v.1.15,2013-01-14 12:23:00,
2013-01-14 06:33:00,5.8,2.8,30.58,South,171,0.0,1.0,87,0.00,,,0.00,0,Wunderground v.1.15,2013-01-14 12:33:00,
2013-01-14 06:43:00,5.7,2.7,30.59,South,171,0.0,0.0,87,0.00,,,0.00,0,Wunderground v.1.15,2013-01-14 12:43:00,
2013-01-14 06:53:00,5.5,2.2,30.60,South,171,0.0,0.0,86,0.00,,,0.00,0,Wunderground v.1.15,2013-01-14 12:53:00,
2013-01-14 06:58:00,5.4,2.1,30.60,South,171,0.0,0.0,86,0.00,,,0.00,0,Wunderground v.1.15,2013-01-14 12:58:00,
2013-01-14 07:08:00,5.6,2.6,30.60,South,171,0.0,0.0,87,0.00,,,0.00,0,Wunderground v.1.15,2013-01-14 13:08:00,
2013-01-14 07:18:00,5.8,3.0,30.61,South,171,0.0,0.0,88,0.00,,,0.00,0,Wunderground v.1.15,2013-01-14 13:18:00,
2013-01-14 07:28:00,5.9,3.1,30.61,South,171,0.0,0.0,88,0.00,,,0.00,5,Wunderground v.1.15,2013-01-14 13:28:00,
2013-01-14 07:38:00,6.0,3.2,30.62,South,171,0.0,0.0,88,0.00,,,0.00,19,Wunderground v.1.15,2013-01-14 13:38:00,
2013-01-14 07:43:00,6.1,3.3,30.62,South,171,0.0,0.0,88,0.00,,,0.00,23,Wunderground v.1.15,2013-01-14 13:43:00,
2013-01-14 07:53:00,6.4,3.6,30.62,South,171,0.0,0.0,88,0.00,,,0.00,30,Wunderground v.1.15,2013-01-14 13:53:00,
2013-01-14 08:03:00,7.0,4.4,30.62,South,171,0.0,0.0,89,0.00,,,0.00,28,Wunderground v.1.15,2013-01-14 14:03:00,
2013-01-14 08:13:00,7.5,4.9,30.63,South,171,0.0,0.0,89,0.00,,,0.00,21,Wunderground v.1.15,2013-01-14 14:13:00,
2013-01-14 08:19:00,7.9,5.3,30.64,South,171,0.0,0.0,89,0.00,,,0.00,30,Wunderground v.1.15,2013-01-14 14:19:00,
2013-01-14 08:29:00,8.3,5.7,30.66,South,171,0.0,0.0,89,0.00,,,0.00,49,Wunderground v.1.15,2013-01-14 14:29:00,
2013-01-14 08:39:00,9.2,6.6,30.67,South,172,0.0,0.0,89,0.00,,,0.00,47,Wunderground v.1.15,2013-01-14 14:39:00,
2013-01-14 08:49:00,10.1,7.3,30.67,South,172,0.0,0.0,88,0.00,,,0.00,49,Wunderground v.1.15,2013-01-14 14:49:00,
2013-01-14 08:54:00,10.4,7.3,30.67,South,172,0.0,0.0,87,0.00,,,0.00,58,Wunderground v.1.15,2013-01-14 14:54:00,
2013-01-14 09:04:00,11.0,7.6,30.66,South,172,0.0,0.0,86,0.00,,,0.00,60,Wunderground v.1.15,2013-01-14 15:04:00,
2013-01-14 09:14:00,11.2,7.8,30.66,NW,317,1.0,1.0,86,0.00,,,0.00,90,Wunderground v.1.15,2013-01-14 15:14:00,
2013-01-14 09:24:00,11.9,8.3,30.66,NW,317,1.0,1.0,85,0.00,,,0.00,149,Wunderground v.1.15,2013-01-14 15:24:00,
2013-01-14 09:34:00,12.9,9.2,30.66,NE,34,0.0,1.0,85,0.00,,,0.00,236,Wunderground v.1.15,2013-01-14 15:34:00,
2013-01-14 09:39:00,13.6,9.7,30.66,NW,326,1.0,1.0,84,0.00,,,0.00,237,Wunderground v.1.15,2013-01-14 15:39:00,
2013-01-14 09:49:00,15.4,10.9,30.66,NNE,28,2.0,2.0,82,0.00,,,0.00,246,Wunderground v.1.15,2013-01-14 15:49:00,
2013-01-14 09:59:00,16.5,10.8,30.65,NNE,16,3.0,3.0,78,0.00,,,0.00,359,Wunderground v.1.15,2013-01-14 15:59:00,
2013-01-14 10:09:00,17.3,11.0,30.65,North,5,3.0,3.0,76,0.00,,,0.00,390,Wunderground v.1.15,2013-01-14 16:09:00,
2013-01-14 10:14:00,17.7,11.1,30.65,NNE,16,5.0,5.0,75,0.00,,,0.00,352,Wunderground v.1.15,2013-01-14 16:14:00,
2013-01-14 10:24:00,18.5,11.9,30.65,NE,35,3.0,5.0,75,0.00,,,0.00,220,Wunderground v.1.15,2013-01-14 16:24:00,
2013-01-14 10:34:00,19.1,11.6,30.65,NE,44,3.0,5.0,72,0.00,,,0.00,251,Wunderground v.1.15,2013-01-14 16:34:00,
2013-01-14 10:44:00,20.0,12.1,30.66,NNE,15,3.0,5.0,71,0.00,,,0.00,466,Wunderground v.1.15,2013-01-14 16:44:00,
2013-01-14 10:54:00,21.1,12.2,30.66,NNW,338,3.0,6.0,68,0.00,,,0.00,376,Wunderground v.1.15,2013-01-14 16:54:00,
2013-01-14 11:04:00,21.5,11.9,30.66,NE,40,4.0,4.0,66,0.00,,,0.00,345,Wunderground v.1.15,2013-01-14 17:04:00,
2013-01-14 11:14:00,21.8,10.8,30.66,North,355,4.0,6.0,62,0.00,,,0.00,352,Wunderground v.1.15,2013-01-14 17:14:00,
2013-01-14 11:24:00,22.3,10.9,30.65,NNW,338,3.0,4.0,61,0.00,,,0.00,396,Wunderground v.1.15,2013-01-14 17:24:00,
2013-01-14 11:29:00,22.4,10.2,30.65,NE,37,4.0,6.0,59,0.00,,,0.00,563,Wunderground v.1.15,2013-01-14 17:29:00,
2013-01-14 11:39:00,22.7,10.5,30.65,NNE,23,4.0,4.0,59,0.00,,,0.00,434,Wunderground v.1.15,2013-01-14 17:39:00,
2013-01-14 11:44:00,22.8,10.6,30.64,NNE,27,3.0,5.0,59,0.00,,,0.00,313,Wunderground v.1.15,2013-01-14 17:44:00,
2013-01-14 11:49:00,23.0,10.4,30.64,NNW,336,4.0,6.0,58,0.00,,,0.00,501,Wunderground v.1.15,2013-01-14 17:49:00,
2013-01-14 11:59:00,23.3,10.7,30.64,NW,315,4.0,4.0,58,0.00,,,0.00,563,Wunderground v.1.15,2013-01-14 17:59:00,
2013-01-14 12:09:00,23.5,10.5,30.63,NNW,333,4.0,4.0,57,0.00,,,0.00,561,Wunderground v.1.15,2013-01-14 18:09:00,
2013-01-14 12:14:00,23.4,10.8,30.63,NNE,20,4.0,4.0,58,0.00,,,0.00,561,Wunderground v.1.15,2013-01-14 18:14:00,
2013-01-14 12:24:00,23.6,11.7,30.62,NNE,19,2.0,5.0,60,0.00,,,0.00,564,Wunderground v.1.15,2013-01-14 18:24:00,
2013-01-14 12:34:00,23.8,10.8,30.61,NE,55,2.0,3.0,57,0.00,,,0.00,571,Wunderground v.1.15,2013-01-14 18:34:00,
2013-01-14 12:43:00,24.1,9.4,30.62,NE,40,3.0,5.0,53,0.00,,,0.00,417,Wunderground v.1.15,2013-01-14 18:43:00,
2013-01-14 12:49:00,24.0,9.7,30.61,NE,56,3.0,3.0,54,0.00,,,0.00,236,Wunderground v.1.15,2013-01-14 18:49:00,
2013-01-14 12:59:00,23.8,9.6,30.60,NE,51,2.0,5.0,54,0.00,,,0.00,348,Wunderground v.1.15,2013-01-14 18:59:00,
2013-01-14 13:08:00,24.3,10.0,30.60,NE,55,2.0,3.0,54,0.00,,,0.00,410,Wunderground v.1.15,2013-01-14 19:08:00,
2013-01-14 13:14:00,24.7,11.2,30.60,NE,42,3.0,3.0,56,0.00,,,0.00,598,Wunderground v.1.15,2013-01-14 19:14:00,
2013-01-14 13:23:00,25.0,11.5,30.60,East,95,2.0,3.0,56,0.00,,,0.00,547,Wunderground v.1.15,2013-01-14 19:23:00,
2013-01-14 13:33:00,24.8,10.9,30.59,East,80,2.0,3.0,55,0.00,,,0.00,517,Wunderground v.1.15,2013-01-14 19:33:00,
2013-01-14 13:43:00,24.7,10.4,30.59,SE,142,2.0,2.0,54,0.00,,,0.00,506,Wunderground v.1.15,2013-01-14 19:43:00,
2013-01-14 13:53:00,25.0,9.4,30.59,ENE,61,2.0,3.0,51,0.00,,,0.00,487,Wunderground v.1.15,2013-01-14 19:53:00,
2013-01-14 14:03:00,25.4,10.2,30.59,ENE,61,3.0,3.0,52,0.00,,,0.00,475,Wunderground v.1.15,2013-01-14 20:03:00,
2013-01-14 14:13:00,25.4,10.2,30.58,East,92,3.0,4.0,52,0.00,,,0.00,455,Wunderground v.1.15,2013-01-14 20:13:00,
2013-01-14 14:23:00,25.5,10.3,30.58,East,91,3.0,6.0,52,0.00,,,0.00,439,Wunderground v.1.15,2013-01-14 20:23:00,
2013-01-14 14:28:00,25.7,10.0,30.58,NE,51,3.0,3.0,51,0.00,,,0.00,425,Wunderground v.1.15,2013-01-14 20:28:00,
2013-01-14 14:38:00,26.0,9.9,30.59,NE,46,3.0,4.0,50,0.00,,,0.00,404,Wunderground v.1.15,2013-01-14 20:38:00,
2013-01-14 14:43:00,25.9,9.3,30.59,NE,55,4.0,5.0,49,0.00,,,0.00,394,Wunderground v.1.15,2013-01-14 20:43:00,
2013-01-14 14:53:00,26.0,9.9,30.59,NE,49,3.0,3.0,50,0.00,,,0.00,369,Wunderground v.1.15,2013-01-14 20:53:00,
2013-01-14 15:03:00,26.4,10.3,30.59,NNE,28,3.0,5.0,50,0.00,,,0.00,345,Wunderground v.1.15,2013-01-14 21:03:00,
2013-01-14 15:13:00,26.7,11.0,30.59,NNE,12,3.0,4.0,51,0.00,,,0.00,322,Wunderground v.1.15,2013-01-14 21:13:00,
2013-01-14 15:23:00,26.6,10.0,30.59,NE,41,3.0,5.0,49,0.00,,,0.00,295,Wunderground v.1.15,2013-01-14 21:23:00,
2013-01-14 15:33:00,26.5,10.8,30.59,ENE,57,3.0,3.0,51,0.00,,,0.00,267,Wunderground v.1.15,2013-01-14 21:33:00,
2013-01-14 15:43:00,26.5,10.8,30.58,East,87,3.0,3.0,51,0.00,,,0.00,241,Wunderground v.1.15,2013-01-14 21:43:00,
2013-01-14 15:53:00,26.6,10.4,30.58,ENE,65,3.0,3.0,50,0.00,,,0.00,213,Wunderground v.1.15,2013-01-14 21:53:00,
2013-01-14 15:58:00,26.6,10.4,30.58,NE,53,3.0,5.0,50,0.00,,,0.00,199,Wunderground v.1.15,2013-01-14 21:58:00,
2013-01-14 16:08:00,26.4,9.3,30.58,ENE,63,4.0,4.0,48,0.00,,,0.00,171,Wunderground v.1.15,2013-01-14 22:08:00,
2013-01-14 16:14:00,26.4,9.8,30.58,ENE,75,4.0,5.0,49,0.00,,,0.00,153,Wunderground v.1.15,2013-01-14 22:14:00,
2013-01-14 16:24:00,26.3,9.7,30.58,NE,52,3.0,4.0,49,0.00,,,0.00,118,Wunderground v.1.15,2013-01-14 22:24:00,
2013-01-14 16:29:00,26.2,10.1,30.58,NE,54,3.0,4.0,50,0.00,,,0.00,83,Wunderground v.1.15,2013-01-14 22:29:00,
2013-01-14 16:39:00,26.0,10.3,30.57,East,79,3.0,3.0,51,0.00,,,0.00,51,Wunderground v.1.15,2013-01-14 22:39:00,
2013-01-14 16:49:00,25.7,10.5,30.57,NE,53,3.0,3.0,52,0.00,,,0.00,28,Wunderground v.1.15,2013-01-14 22:49:00,
2013-01-14 16:54:00,25.6,10.4,30.58,NE,40,3.0,3.0,52,0.00,,,0.00,19,Wunderground v.1.15,2013-01-14 22:54:00,
2013-01-14 16:59:00,25.4,10.6,30.58,NE,47,3.0,4.0,53,0.00,,,0.00,19,Wunderground v.1.15,2013-01-14 22:59:00,
2013-01-14 17:09:00,25.1,10.8,30.58,NE,51,3.0,3.0,54,0.00,,,0.00,11,Wunderground v.1.15,2013-01-14 23:09:00,
2013-01-14 17:19:00,24.4,10.5,30.58,NE,51,1.0,2.0,55,0.00,,,0.00,0,Wunderground v.1.15,2013-01-14 23:19:00,
2013-01-14 17:24:00,24.3,10.4,30.58,NE,51,1.0,2.0,55,0.00,,,0.00,0,Wunderground v.1.15,2013-01-14 23:24:00,
2013-01-14 17:39:00,23.9,10.9,30.57,NE,51,2.0,2.0,57,0.00,,,0.00,0,Wunderground v.1.15,2013-01-14 23:39:00,
2013-01-14 17:44:00,23.7,10.7,30.57,NE,51,1.0,2.0,57,0.00,,,0.00,0,Wunderground v.1.15,2013-01-14 23:44:00,
2013-01-14 17:54:00,23.6,11.0,30.57,NE,51,2.0,2.0,58,0.00,,,0.00,0,Wunderground v.1.15,2013-01-14 23:54:00,
2013-01-14 18:04:00,23.6,10.6,30.57,NE,51,1.0,1.0,57,0.00,,,0.00,0,Wunderground v.1.15,2013-01-15 00:04:00,
2013-01-14 18:14:00,23.3,10.7,30.57,NE,51,1.0,1.0,58,0.00,,,0.00,0,Wunderground v.1.15,2013-01-15 00:14:00,
2013-01-14 18:19:00,23.1,10.9,30.57,NE,51,2.0,2.0,59,0.00,,,0.00,0,Wunderground v.1.15,2013-01-15 00:19:00,
2013-01-14 18:29:00,22.9,10.7,30.57,NE,51,1.0,1.0,59,0.00,,,0.00,0,Wunderground v.1.15,2013-01-15 00:29:00,
2013-01-14 18:39:00,22.6,10.8,30.57,NE,51,1.0,1.0,60,0.00,,,0.00,0,Wunderground v.1.15,2013-01-15 00:39:00,
2013-01-14 18:49:00,22.2,10.8,30.58,NE,51,1.0,1.0,61,0.00,,,0.00,0,Wunderground v.1.15,2013-01-15 00:49:00,
2013-01-14 18:59:00,21.9,10.5,30.57,NE,51,1.0,1.0,61,0.00,,,0.00,0,Wunderground v.1.15,2013-01-15 00:59:00,
2013-01-14 19:04:00,21.7,10.3,30.57,NE,51,1.0,1.0,61,0.00,,,0.00,0,Wunderground v.1.15,2013-01-15 01:04:00,
2013-01-14 19:14:00,21.2,9.8,30.58,NE,51,1.0,2.0,61,0.00,,,0.00,0,Wunderground v.1.15,2013-01-15 01:14:00,
2013-01-14 19:19:00,20.4,9.8,30.58,NE,51,1.0,1.0,63,0.00,,,0.00,0,Wunderground v.1.15,2013-01-15 01:19:00,
2013-01-14 19:29:00,19.5,9.6,30.57,NE,51,0.0,0.0,65,0.00,,,0.00,0,Wunderground v.1.15,2013-01-15 01:29:00,
2013-01-14 19:34:00,19.5,9.6,30.57,NE,51,0.0,0.0,65,0.00,,,0.00,0,Wunderground v.1.15,2013-01-15 01:34:00,
2013-01-14 19:39:00,19.5,9.6,30.58,NE,51,0.0,0.0,65,0.00,,,0.00,0,Wunderground v.1.15,2013-01-15 01:39:00,
2013-01-14 19:49:00,18.5,10.3,30.58,NE,51,0.0,0.0,70,0.00,,,0.00,0,Wunderground v.1.15,2013-01-15 01:49:00,
2013-01-14 19:59:00,18.4,10.6,30.58,NE,51,0.0,0.0,71,0.00,,,0.00,0,Wunderground v.1.15,2013-01-15 01:59:00,
2013-01-14 20:04:00,18.3,10.5,30.58,NE,51,0.0,0.0,71,0.00,,,0.00,0,Wunderground v.1.15,2013-01-15 02:04:00,
2013-01-14 20:14:00,18.1,10.6,30.58,NE,51,0.0,0.0,72,0.00,,,0.00,0,Wunderground v.1.15,2013-01-15 02:14:00,
2013-01-14 20:19:00,18.3,10.5,30.58,NE,51,0.0,0.0,71,0.00,,,0.00,0,Wunderground v.1.15,2013-01-15 02:19:00,
2013-01-14 20:29:00,18.1,10.3,30.58,NE,51,0.0,0.0,71,0.00,,,0.00,0,Wunderground v.1.15,2013-01-15 02:29:00,
2013-01-14 20:39:00,17.4,10.2,30.58,NE,51,0.0,0.0,73,0.00,,,0.00,0,Wunderground v.1.15,2013-01-15 02:39:00,
2013-01-14 20:49:00,17.0,10.1,30.58,NE,51,0.0,0.0,74,0.00,,,0.00,0,Wunderground v.1.15,2013-01-15 02:49:00,
2013-01-14 20:59:00,16.6,10.1,30.58,NE,51,1.0,1.0,75,0.00,,,0.00,0,Wunderground v.1.15,2013-01-15 02:59:00,
2013-01-14 21:04:00,16.2,10.0,30.58,NE,51,2.0,2.0,76,0.00,,,0.00,0,Wunderground v.1.15,2013-01-15 03:04:00,
2013-01-14 21:14:00,15.6,9.7,30.58,NE,51,1.0,2.0,77,0.00,,,0.00,0,Wunderground v.1.15,2013-01-15 03:14:00,
2013-01-14 21:24:00,15.0,9.4,30.58,NE,51,1.0,1.0,78,0.00,,,0.00,0,Wunderground v.1.15,2013-01-15 03:24:00,
2013-01-14 21:34:00,15.0,10.2,30.58,NE,51,0.0,0.0,81,0.00,,,0.00,0,Wunderground v.1.15,2013-01-15 03:34:00,
2013-01-14 21:44:00,15.2,10.4,30.58,NE,51,0.0,0.0,81,0.00,,,0.00,0,Wunderground v.1.15,2013-01-15 03:44:00,
2013-01-14 21:49:00,15.4,10.6,30.58,NE,51,0.0,0.0,81,0.00,,,0.00,0,Wunderground v.1.15,2013-01-15 03:49:00,
2013-01-14 21:59:00,15.3,10.0,30.58,NE,51,0.0,0.0,79,0.00,,,0.00,0,Wunderground v.1.15,2013-01-15 03:59:00,
2013-01-14 22:08:00,14.9,9.8,30.58,NE,51,0.0,0.0,80,0.00,,,0.00,0,Wunderground v.1.15,2013-01-15 04:08:00,
2013-01-14 22:18:00,14.4,9.6,30.58,NE,51,0.0,0.0,81,0.00,,,0.00,0,Wunderground v.1.15,2013-01-15 04:18:00,
2013-01-14 22:24:00,14.2,9.7,30.58,NE,51,0.0,0.0,82,0.00,,,0.00,0,Wunderground v.1.15,2013-01-15 04:24:00,
2013-01-14 22:33:00,13.7,9.2,30.59,NE,51,0.0,0.0,82,0.00,,,0.00,0,Wunderground v.1.15,2013-01-15 04:33:00,
2013-01-14 22:43:00,13.7,9.5,30.58,NE,51,0.0,0.0,83,0.00,,,0.00,0,Wunderground v.1.15,2013-01-15 04:43:00,
2013-01-14 22:53:00,13.8,9.3,30.58,NE,51,0.0,0.0,82,0.00,,,0.00,0,Wunderground v.1.15,2013-01-15 04:53:00,
2013-01-14 22:58:00,14.1,9.3,30.57,NE,51,1.0,1.0,81,0.00,,,0.00,0,Wunderground v.1.15,2013-01-15 04:58:00,
2013-01-14 23:03:00,14.1,9.1,30.57,NE,51,1.0,2.0,80,0.00,,,0.00,0,Wunderground v.1.15,2013-01-15 05:03:00,
2013-01-14 23:08:00,14.3,9.3,30.58,NE,51,2.0,2.0,80,0.00,,,0.00,0,Wunderground v.1.15,2013-01-15 05:08:00,
2013-01-14 23:18:00,13.2,8.5,30.57,NE,51,0.0,0.0,81,0.00,,,0.00,0,Wunderground v.1.15,2013-01-15 05:18:00,
2013-01-14 23:23:00,12.8,8.3,30.57,NE,51,0.0,0.0,82,0.00,,,0.00,0,Wunderground v.1.15,2013-01-15 05:23:00,
2013-01-14 23:33:00,13.1,9.2,30.57,NE,51,0.0,0.0,84,0.00,,,0.00,0,Wunderground v.1.15,2013-01-15 05:33:00,
2013-01-14 23:43:00,13.9,8.9,30.57,NE,51,0.0,0.0,80,0.00,,,0.00,0,Wunderground v.1.15,2013-01-15 05:43:00,
2013-01-14 23:48:00,14.1,9.1,30.57,NE,51,0.0,0.0,80,0.00,,,0.00,0,Wunderground v.1.15,2013-01-15 05:48:00,
2013-01-14 23:53:00,13.5,8.2,30.58,NE,51,0.0,0.0,79,0.00,,,0.00,0,Wunderground v.1.15,2013-01-15 05:53:00,